Time;durP1;ratioP1;P1;durP2;ratioP2;P2;SDS_P1;SDS_P2;PMS_P1;PMS_P2;Temp;Humidity;BMP_temperature;BMP_pressure;BME280_temperature;BME280_humidity;BME280_pressure;Samples;Min_cycle;Max_cycle;Signal;HPM_P1;HPM_P2
2020/12/22 00:02:11;;;;;;;30.38;20.55;;;12.20;99.90;;;;;;5081658;28;20107;-80
2020/12/22 00:04:36;;;;;;;30.45;21.27;;;12.30;99.90;;;;;;5083139;28;20028;-80
2020/12/22 00:07:03;;;;;;;26.15;18.88;;;12.30;99.90;;;;;;5065593;28;20030;-80
2020/12/22 00:09:28;;;;;;;30.45;19.95;;;12.20;99.90;;;;;;5065512;28;20028;-80
2020/12/22 00:11:54;;;;;;;26.60;18.98;;;12.30;99.90;;;;;;5082350;28;20099;-80
2020/12/22 00:14:19;;;;;;;28.27;19.02;;;12.30;99.90;;;;;;5082018;28;20016;-79
2020/12/22 00:16:45;;;;;;;27.55;18.95;;;12.40;99.90;;;;;;5082204;28;20017;-80
2020/12/22 00:19:11;;;;;;;29.88;20.13;;;12.40;99.90;;;;;;5065663;28;20031;-80
2020/12/22 00:21:37;;;;;;;28.10;19.55;;;12.40;99.90;;;;;;5062818;28;20028;-80
2020/12/22 00:24:03;;;;;;;27.23;18.65;;;12.40;99.90;;;;;;5070266;28;20021;-80
2020/12/22 00:26:29;;;;;;;27.02;18.52;;;12.40;99.90;;;;;;5060927;28;20025;-80
2020/12/22 00:28:54;;;;;;;22.80;16.88;;;12.50;99.90;;;;;;5081063;28;20029;-80
2020/12/22 00:31:20;;;;;;;23.52;15.98;;;12.50;99.90;;;;;;5064099;28;20032;-80
2020/12/22 00:33:46;;;;;;;20.00;15.10;;;12.50;99.90;;;;;;5082467;28;20430;-80
2020/12/22 00:36:11;;;;;;;19.45;14.63;;;12.50;99.90;;;;;;5063897;28;20023;-80
2020/12/22 00:38:37;;;;;;;22.08;13.88;;;12.50;99.90;;;;;;5080964;28;20380;-80
2020/12/22 00:41:03;;;;;;;21.25;14.68;;;12.50;99.90;;;;;;5063460;28;20028;-80
2020/12/22 00:43:28;;;;;;;20.50;14.07;;;12.60;99.90;;;;;;5062004;28;20374;-80
2020/12/22 00:45:54;;;;;;;16.80;12.93;;;12.60;99.90;;;;;;5082400;28;20025;-80
2020/12/22 00:48:20;;;;;;;21.90;14.48;;;12.60;99.90;;;;;;5064600;28;20024;-80
2020/12/22 00:50:45;;;;;;;18.70;12.95;;;12.60;99.90;;;;;;5066161;28;20491;-80
2020/12/22 00:53:11;;;;;;;16.48;12.52;;;12.60;99.90;;;;;;5082714;28;20442;-80
2020/12/22 00:55:36;;;;;;;15.43;12.23;;;12.70;99.90;;;;;;5061227;28;20476;-80
2020/12/22 00:58:02;;;;;;;20.42;14.23;;;12.70;99.90;;;;;;5063327;28;20551;-80
2020/12/22 01:00:27;;;;;;;17.30;12.27;;;12.70;99.90;;;;;;5079904;28;20021;-79
2020/12/22 01:02:53;;;;;;;15.45;12.30;;;12.80;99.90;;;;;;5079310;28;20027;-80
2020/12/22 01:05:18;;;;;;;14.98;12.02;;;12.70;99.90;;;;;;5069615;28;20031;-79
2020/12/22 01:07:44;;;;;;;14.93;10.48;;;12.80;99.90;;;;;;5082364;28;20058;-79
2020/12/22 01:10:09;;;;;;;15.15;10.75;;;12.80;99.90;;;;;;5080452;28;20021;-79
2020/12/22 01:12:35;;;;;;;16.27;11.57;;;12.80;99.90;;;;;;5062777;28;20097;-79
2020/12/22 01:15:01;;;;;;;16.65;11.45;;;12.80;99.90;;;;;;5063806;28;20024;-79
2020/12/22 01:17:26;;;;;;;14.85;10.55;;;12.90;99.90;;;;;;5082115;28;20027;-79
2020/12/22 01:19:53;;;;;;;13.57;9.68;;;12.80;99.90;;;;;;5064796;28;20017;-79
2020/12/22 01:22:19;;;;;;;15.30;10.23;;;12.90;99.90;;;;;;5080897;28;20024;-80
2020/12/22 01:24:44;;;;;;;11.77;8.77;;;12.90;99.90;;;;;;5078819;28;20058;-79
2020/12/22 01:27:10;;;;;;;11.63;8.70;;;12.90;99.90;;;;;;5065086;28;20067;-79
2020/12/22 01:29:35;;;;;;;11.38;8.45;;;12.90;99.90;;;;;;5065839;28;20558;-79
2020/12/22 01:32:01;;;;;;;10.82;7.55;;;12.90;99.90;;;;;;5067389;28;20020;-79
2020/12/22 01:34:27;;;;;;;9.57;7.82;;;12.90;99.90;;;;;;5067326;28;20380;-79
2020/12/22 01:36:52;;;;;;;9.00;6.78;;;12.90;99.90;;;;;;5066816;28;20490;-79
2020/12/22 01:39:18;;;;;;;9.05;7.15;;;12.90;99.90;;;;;;5084055;28;20561;-79
2020/12/22 01:41:43;;;;;;;8.13;6.75;;;12.90;99.90;;;;;;5082449;28;20056;-80
2020/12/22 01:44:11;;;;;;;8.73;6.90;;;12.90;99.90;;;;;;5066041;28;20114;-80
2020/12/22 01:46:48;;;;;;;6.95;5.70;;;12.90;99.90;;;;;;5058262;28;20391;-80
2020/12/22 01:49:18;;;;;;;7.50;6.05;;;13.00;99.90;;;;;;5067272;28;20048;-79
2020/12/22 01:51:45;;;;;;;6.95;5.63;;;12.90;99.90;;;;;;5085784;28;20123;-79
2020/12/22 01:54:12;;;;;;;6.38;5.05;;;12.90;99.90;;;;;;5082705;28;20025;-79
2020/12/22 01:56:38;;;;;;;7.47;6.07;;;12.90;99.90;;;;;;5057977;28;20021;-79
2020/12/22 01:59:04;;;;;;;6.25;5.18;;;12.90;99.90;;;;;;5084242;28;20044;-79
2020/12/22 02:01:33;;;;;;;6.78;5.32;;;12.90;99.90;;;;;;5065713;28;20028;-79
2020/12/22 02:04:04;;;;;;;6.20;5.18;;;12.90;99.90;;;;;;5058064;28;20025;-80
2020/12/22 02:06:31;;;;;;;6.05;4.80;;;12.90;99.90;;;;;;5084566;28;20523;-79
2020/12/22 02:08:58;;;;;;;7.18;4.25;;;12.90;99.90;;;;;;5068204;28;20030;-79
2020/12/22 02:11:25;;;;;;;5.45;4.28;;;12.90;99.90;;;;;;5065080;28;20016;-79
2020/12/22 02:13:51;;;;;;;4.72;3.60;;;12.90;99.90;;;;;;5081494;28;20383;-79
2020/12/22 02:16:18;;;;;;;4.72;3.70;;;12.90;99.90;;;;;;5057369;28;20479;-79
2020/12/22 02:18:45;;;;;;;4.07;3.42;;;12.90;99.90;;;;;;5067373;28;20024;-80
2020/12/22 02:21:10;;;;;;;4.50;3.70;;;13.00;99.90;;;;;;5084839;28;20066;-80
2020/12/22 02:23:36;;;;;;;4.13;3.60;;;12.90;99.90;;;;;;5064585;28;20028;-81
2020/12/22 02:26:01;;;;;;;3.75;3.00;;;12.90;99.90;;;;;;5082427;28;20089;-79
2020/12/22 02:28:27;;;;;;;4.80;3.40;;;12.90;99.90;;;;;;5083834;28;20024;-80
2020/12/22 02:30:52;;;;;;;4.25;3.50;;;12.90;99.90;;;;;;5065231;28;20021;-80
2020/12/22 02:33:18;;;;;;;8.73;3.83;;;13.00;99.90;;;;;;5080131;28;20436;-79
2020/12/22 02:35:43;;;;;;;5.00;3.50;;;12.90;99.90;;;;;;5066314;28;20017;-79
2020/12/22 02:38:09;;;;;;;4.38;3.17;;;12.90;99.90;;;;;;5084368;28;20019;-79
2020/12/22 02:40:34;;;;;;;5.53;4.40;;;12.90;99.90;;;;;;5084050;28;20064;-79
2020/12/22 02:43:11;;;;;;;5.97;4.22;;;12.90;99.90;;;;;;5084045;28;20111;-80
2020/12/22 02:45:38;;;;;;;5.55;3.80;;;12.90;99.90;;;;;;5081523;28;20095;-80
2020/12/22 02:48:03;;;;;;;5.55;3.92;;;12.90;99.90;;;;;;5057050;28;20557;-80
2020/12/22 02:50:30;;;;;;;5.85;4.50;;;12.90;99.90;;;;;;5083390;28;20044;-80
2020/12/22 02:52:55;;;;;;;6.95;4.35;;;12.90;99.90;;;;;;5065290;28;20383;-80
2020/12/22 02:55:21;;;;;;;5.57;4.15;;;12.90;99.90;;;;;;5084136;28;20052;-80
2020/12/22 02:57:46;;;;;;;6.15;4.10;;;12.90;99.90;;;;;;5084489;28;20020;-80
2020/12/22 03:00:14;;;;;;;5.45;4.70;;;12.90;99.90;;;;;;5063898;28;20036;-80
2020/12/22 03:02:40;;;;;;;5.63;4.45;;;13.00;99.90;;;;;;5082006;28;20020;-80
2020/12/22 03:05:05;;;;;;;5.65;4.40;;;13.00;99.90;;;;;;5057123;28;20032;-80
2020/12/22 03:07:31;;;;;;;5.90;4.85;;;13.00;99.90;;;;;;5083561;28;20066;-80
2020/12/22 03:09:56;;;;;;;6.68;5.00;;;12.90;99.90;;;;;;5082965;28;20494;-80
2020/12/22 03:12:22;;;;;;;7.28;4.95;;;12.90;99.90;;;;;;5065761;28;20028;-80
2020/12/22 03:14:47;;;;;;;6.47;5.22;;;13.00;99.90;;;;;;5062566;28;20017;-80
2020/12/22 03:17:13;;;;;;;6.90;4.88;;;13.00;99.90;;;;;;5073841;28;20023;-80
2020/12/22 03:19:40;;;;;;;6.38;5.32;;;13.00;99.90;;;;;;5065554;28;20024;-80
2020/12/22 03:22:06;;;;;;;8.27;5.88;;;13.00;99.90;;;;;;5065873;28;20044;-80
2020/12/22 03:24:31;;;;;;;9.73;6.05;;;12.90;99.90;;;;;;5066022;28;20052;-79
2020/12/22 03:26:57;;;;;;;9.32;6.28;;;12.90;99.90;;;;;;5083392;28;20498;-79
2020/12/22 03:29:22;;;;;;;8.52;6.65;;;12.90;99.90;;;;;;5056125;28;20432;-79
2020/12/22 03:31:48;;;;;;;9.10;7.35;;;12.90;99.90;;;;;;5082402;28;20021;-79
2020/12/22 03:34:13;;;;;;;10.05;7.63;;;12.90;99.90;;;;;;5064502;28;20464;-79
2020/12/22 03:36:39;;;;;;;10.63;7.82;;;12.90;99.90;;;;;;5061008;28;20055;-79
2020/12/22 03:39:04;;;;;;;9.98;8.00;;;12.90;99.90;;;;;;5083602;28;20361;-79
2020/12/22 03:41:30;;;;;;;10.70;8.32;;;12.90;99.90;;;;;;5083851;28;20516;-80
2020/12/22 03:43:56;;;;;;;11.10;8.55;;;12.90;99.90;;;;;;5083285;28;20028;-79
2020/12/22 03:46:22;;;;;;;13.23;9.65;;;12.90;99.90;;;;;;5067856;28;20021;-79
2020/12/22 03:48:48;;;;;;;12.32;9.82;;;12.90;99.90;;;;;;5063922;28;20077;-79
2020/12/22 03:51:13;;;;;;;13.15;10.05;;;12.90;99.90;;;;;;5081446;28;20486;-79
2020/12/22 03:53:39;;;;;;;11.07;9.80;;;12.90;99.90;;;;;;5055030;28;20031;-79
2020/12/22 03:56:06;;;;;;;13.32;10.57;;;12.90;99.90;;;;;;5065186;28;20127;-79
2020/12/22 03:58:31;;;;;;;13.02;11.35;;;12.90;99.90;;;;;;5083480;28;20077;-79
2020/12/22 04:00:57;;;;;;;14.80;11.45;;;12.90;99.90;;;;;;5080476;28;20111;-79
2020/12/22 04:03:22;;;;;;;16.13;11.75;;;12.90;99.90;;;;;;5067895;28;20025;-80
2020/12/22 04:05:48;;;;;;;15.32;11.93;;;12.90;99.90;;;;;;5082076;28;20016;-80
2020/12/22 04:08:14;;;;;;;13.98;11.00;;;12.90;99.90;;;;;;5072017;28;20023;-80
2020/12/22 04:10:39;;;;;;;14.85;10.75;;;12.90;99.90;;;;;;5081859;28;20027;-79
2020/12/22 04:13:05;;;;;;;15.20;11.82;;;12.90;99.90;;;;;;5064911;28;20016;-80
2020/12/22 04:15:30;;;;;;;16.02;12.25;;;12.90;99.90;;;;;;5063895;28;20377;-80
2020/12/22 04:17:56;;;;;;;15.73;11.52;;;12.90;99.90;;;;;;5063008;28;20016;-80
2020/12/22 04:20:21;;;;;;;15.77;12.25;;;12.80;99.90;;;;;;5064754;28;20023;-80
2020/12/22 04:22:47;;;;;;;15.38;12.00;;;12.80;99.90;;;;;;5064979;28;20437;-80
2020/12/22 04:25:12;;;;;;;17.90;13.52;;;12.80;99.90;;;;;;5082901;28;20032;-80
2020/12/22 04:27:38;;;;;;;16.38;12.10;;;12.80;99.90;;;;;;5080271;28;20069;-80
2020/12/22 04:30:04;;;;;;;16.25;11.68;;;12.80;99.90;;;;;;5061750;28;20112;-80
2020/12/22 04:32:30;;;;;;;16.98;11.55;;;12.90;99.90;;;;;;5061436;28;20066;-80
2020/12/22 04:34:56;;;;;;;17.13;12.38;;;12.80;99.90;;;;;;5054038;28;20521;-80
2020/12/22 04:37:21;;;;;;;15.02;10.88;;;12.80;99.90;;;;;;5065557;28;20024;-80
2020/12/22 04:39:47;;;;;;;16.23;11.35;;;12.90;99.90;;;;;;5064640;28;20020;-80
2020/12/22 04:42:13;;;;;;;16.15;11.35;;;12.80;99.90;;;;;;5082957;28;20036;-79
2020/12/22 04:44:40;;;;;;;15.30;10.30;;;12.90;99.90;;;;;;5078186;28;20142;-80
2020/12/22 04:47:08;;;;;;;11.52;8.52;;;12.90;99.90;;;;;;5063574;28;20021;-80
2020/12/22 04:49:37;;;;;;;11.70;8.25;;;12.90;99.90;;;;;;5063294;28;20048;-80
2020/12/22 04:52:03;;;;;;;11.55;8.80;;;12.90;99.90;;;;;;5063149;28;20020;-80
2020/12/22 04:54:29;;;;;;;13.40;8.75;;;12.80;99.90;;;;;;5082277;28;20028;-80
2020/12/22 04:56:56;;;;;;;11.82;8.57;;;12.80;99.90;;;;;;5064067;28;20444;-80
2020/12/22 04:59:21;;;;;;;12.15;8.55;;;12.80;99.90;;;;;;5063936;28;20020;-80
2020/12/22 05:01:47;;;;;;;13.35;8.52;;;12.80;99.90;;;;;;5061935;28;20062;-80
2020/12/22 05:04:13;;;;;;;11.40;8.05;;;12.80;99.90;;;;;;5059371;28;20835;-80
2020/12/22 05:06:39;;;;;;;11.35;7.32;;;12.80;99.90;;;;;;5086439;28;20016;-79
2020/12/22 05:09:05;;;;;;;11.13;6.93;;;12.80;99.90;;;;;;5083569;28;20480;-80
2020/12/22 05:11:34;;;;;;;11.93;7.00;;;12.80;99.90;;;;;;5067815;28;20033;-79
2020/12/22 05:14:00;;;;;;;12.77;7.20;;;12.80;99.90;;;;;;5085983;28;20024;-79
2020/12/22 05:16:26;;;;;;;11.02;7.10;;;12.70;99.90;;;;;;5084343;28;20422;-79
2020/12/22 05:18:56;;;;;;;12.23;6.95;;;12.70;99.90;;;;;;5085711;28;20091;-79
2020/12/22 05:21:23;;;;;;;10.77;6.90;;;12.70;99.90;;;;;;5066706;28;20047;-79
2020/12/22 05:23:50;;;;;;;9.27;6.38;;;12.70;99.90;;;;;;5067306;28;20024;-79
2020/12/22 05:26:20;;;;;;;7.22;4.70;;;12.70;99.90;;;;;;5068219;28;20471;-79
2020/12/22 05:28:45;;;;;;;6.57;4.13;;;12.60;99.90;;;;;;5067190;28;20024;-80
2020/12/22 05:31:14;;;;;;;5.43;3.75;;;12.60;99.90;;;;;;5072481;28;20023;-79
2020/12/22 05:33:45;;;;;;;8.13;3.97;;;12.60;99.90;;;;;;5067769;28;20107;-79
2020/12/22 05:36:11;;;;;;;6.28;3.15;;;12.50;99.90;;;;;;5066383;28;20024;-79
2020/12/22 05:38:37;;;;;;;8.55;4.10;;;12.50;99.90;;;;;;5059333;28;20098;-79
2020/12/22 05:41:06;;;;;;;10.82;4.40;;;12.50;99.90;;;;;;5085272;28;20414;-79
2020/12/22 05:43:40;;;;;;;8.90;6.47;;;12.50;99.90;;;;;;5085396;28;20038;-79
2020/12/22 05:46:06;;;;;;;13.07;8.48;;;12.50;99.90;;;;;;5082130;28;20025;-80
2020/12/22 05:48:32;;;;;;;10.43;8.20;;;12.50;99.90;;;;;;5064362;28;20033;-79
2020/12/22 05:51:02;;;;;;;12.15;9.82;;;12.50;99.90;;;;;;5066133;28;20047;-80
2020/12/22 05:53:28;;;;;;;16.85;10.20;;;12.50;99.90;;;;;;5066589;28;20094;-80
2020/12/22 05:55:54;;;;;;;15.70;10.30;;;12.60;99.90;;;;;;5066704;28;20024;-79
2020/12/22 05:58:19;;;;;;;16.77;11.35;;;12.60;99.90;;;;;;5083478;28;20020;-80
2020/12/22 06:00:45;;;;;;;16.50;10.75;;;12.60;99.90;;;;;;5085718;28;20039;-79
2020/12/22 06:03:12;;;;;;;16.95;11.18;;;12.60;99.90;;;;;;5065562;28;20419;-79
2020/12/22 06:05:43;;;;;;;13.18;9.70;;;12.60;99.90;;;;;;5081834;28;20024;-79
2020/12/22 06:08:10;;;;;;;12.75;8.77;;;12.70;99.90;;;;;;5066540;28;20537;-79
2020/12/22 06:10:37;;;;;;;13.52;8.68;;;12.60;99.90;;;;;;5083470;28;20020;-79
2020/12/22 06:13:05;;;;;;;15.43;8.88;;;12.70;99.90;;;;;;5068722;28;20168;-79
2020/12/22 06:15:31;;;;;;;14.25;8.18;;;12.80;99.90;;;;;;5077607;28;20037;-80
2020/12/22 06:17:57;;;;;;;12.25;8.10;;;12.80;99.90;;;;;;5078322;28;20029;-79
2020/12/22 06:20:24;;;;;;;13.43;7.43;;;12.80;99.90;;;;;;5058008;28;20476;-79
2020/12/22 06:22:50;;;;;;;9.68;6.45;;;12.80;99.90;;;;;;5062183;28;20472;-80
2020/12/22 06:25:21;;;;;;;10.43;5.97;;;12.90;99.90;;;;;;5058070;28;20074;-79
2020/12/22 06:27:47;;;;;;;7.72;5.30;;;12.90;99.90;;;;;;5056220;28;20028;-79
2020/12/22 06:30:14;;;;;;;10.65;5.53;;;12.90;99.90;;;;;;5056266;28;20029;-80
2020/12/22 06:32:41;;;;;;;10.73;5.30;;;12.90;99.90;;;;;;5074335;28;20699;-80
2020/12/22 06:35:30;;;;;;;8.40;4.65;;;12.90;99.90;;;;;;5056643;28;20094;-80
2020/12/22 06:37:56;;;;;;;8.65;5.60;;;12.90;99.90;;;;;;5056563;28;20024;-79
2020/12/22 06:40:52;;;;;;;9.38;5.30;;;13.00;99.90;;;;;;5073151;28;20400;-79
2020/12/22 06:43:44;;;;;;;8.70;5.38;;;12.90;99.90;;;;;;5074296;28;20491;-79
2020/12/22 06:46:32;;;;;;;11.40;5.90;;;12.90;99.90;;;;;;5069371;28;20078;-79
2020/12/22 06:48:58;;;;;;;11.45;6.85;;;12.90;99.90;;;;;;5046323;28;20024;-79
2020/12/22 06:51:28;;;;;;;14.15;8.25;;;12.90;99.90;;;;;;5072783;28;20097;-79
2020/12/22 06:53:53;;;;;;;;;;;12.80;99.90;;;;;;5073172;28;20050;-79
2020/12/22 06:56:52;;;;;;;21.60;11.50;;;12.90;99.90;;;;;;5056163;28;20363;-79
2020/12/22 06:59:47;;;;;;;24.77;12.00;;;12.80;99.90;;;;;;5058443;28;20028;-79
2020/12/22 07:02:30;;;;;;;25.02;12.60;;;12.80;99.90;;;;;;5055964;28;20086;-79
2020/12/22 07:04:57;;;;;;;20.55;11.70;;;12.80;99.90;;;;;;5073878;28;20472;-79
2020/12/22 07:07:23;;;;;;;23.17;11.30;;;12.70;99.90;;;;;;5073808;28;20090;-79
2020/12/22 07:09:58;;;;;;;17.27;10.85;;;12.70;99.90;;;;;;5072507;28;20024;-79
2020/12/22 07:12:26;;;;;;;17.27;9.63;;;12.70;99.90;;;;;;5073724;28;20063;-79
2020/12/22 07:14:51;;;;;;;14.82;8.52;;;12.80;99.90;;;;;;5072446;28;20074;-79
2020/12/22 07:17:19;;;;;;;14.82;7.55;;;12.70;99.90;;;;;;5083402;28;20016;-79
2020/12/22 07:19:46;;;;;;;13.27;6.63;;;12.70;99.90;;;;;;5075771;28;20047;-79
2020/12/22 07:22:14;;;;;;;14.52;5.40;;;12.80;99.90;;;;;;5093869;28;20028;-79
2020/12/22 07:24:40;;;;;;;10.65;3.88;;;12.80;99.90;;;;;;5075499;28;20031;-78
2020/12/22 07:27:07;;;;;;;11.30;5.30;;;12.70;99.90;;;;;;5066609;28;20021;-79
2020/12/22 07:29:34;;;;;;;11.73;4.95;;;12.70;99.90;;;;;;5064024;28;20117;-79
2020/12/22 07:32:01;;;;;;;11.43;3.53;;;12.70;99.90;;;;;;5083241;28;20150;-79
2020/12/22 07:34:26;;;;;;;14.75;4.07;;;12.80;99.90;;;;;;5083577;28;20024;-79
2020/12/22 07:37:09;;;;;;;12.07;4.20;;;12.70;99.90;;;;;;5060060;28;20111;-79
2020/12/22 07:39:35;;;;;;;14.45;4.95;;;12.70;99.90;;;;;;5070727;28;20027;-79
2020/12/22 07:42:15;;;;;;;14.60;4.93;;;12.70;99.90;;;;;;5090223;28;20028;-79
2020/12/22 07:44:42;;;;;;;12.23;4.70;;;12.70;99.90;;;;;;5060925;28;20124;-79
2020/12/22 07:47:09;;;;;;;17.88;5.45;;;12.70;99.90;;;;;;5073132;28;20032;-79
2020/12/22 07:49:38;;;;;;;10.27;5.38;;;12.70;99.90;;;;;;5054695;28;20080;-79
2020/12/22 07:52:04;;;;;;;16.60;6.00;;;12.60;99.90;;;;;;5073026;28;20024;-79
2020/12/22 07:54:29;;;;;;;16.63;6.05;;;12.60;99.90;;;;;;5062864;28;20028;-79
2020/12/22 07:57:00;;;;;;;13.82;5.72;;;12.60;99.90;;;;;;5065385;28;20498;-79
2020/12/22 07:59:27;;;;;;;14.27;6.32;;;12.60;99.90;;;;;;5083685;28;20022;-79
2020/12/22 08:01:54;;;;;;;12.50;5.35;;;12.50;99.90;;;;;;5062751;28;20028;-79
2020/12/22 08:04:22;;;;;;;15.60;6.10;;;12.50;99.90;;;;;;5066049;28;20057;-79
2020/12/22 08:06:55;;;;;;;15.60;5.72;;;12.50;99.90;;;;;;5064350;28;20020;-79
2020/12/22 08:09:40;;;;;;;12.57;4.75;;;12.50;99.90;;;;;;5054820;28;20383;-79
2020/12/22 08:12:10;;;;;;;13.02;4.28;;;12.50;99.90;;;;;;5054715;28;20112;-79
2020/12/22 08:14:42;;;;;;;11.38;3.90;;;12.50;99.90;;;;;;5071894;28;20127;-78
2020/12/22 08:17:13;;;;;;;10.50;3.63;;;12.50;99.90;;;;;;5052653;28;20024;-79
2020/12/22 08:19:39;;;;;;;11.55;3.00;;;12.50;99.90;;;;;;5076048;28;20016;-79
2020/12/22 08:22:05;;;;;;;14.10;3.00;;;12.40;99.90;;;;;;5092473;28;20070;-79
2020/12/22 08:24:33;;;;;;;13.75;2.58;;;12.40;99.90;;;;;;5092803;28;20035;-79
2020/12/22 08:26:59;;;;;;;12.65;2.60;;;12.40;99.90;;;;;;5074441;28;20032;-79
2020/12/22 08:29:27;;;;;;;12.75;2.60;;;12.40;99.90;;;;;;5074430;28;20032;-79
2020/12/22 08:31:55;;;;;;;12.48;2.20;;;12.40;99.90;;;;;;5074368;28;20039;-79
2020/12/22 08:34:21;;;;;;;8.60;1.80;;;12.40;99.90;;;;;;5092645;28;20020;-79
2020/12/22 08:36:47;;;;;;;13.05;2.30;;;12.30;99.90;;;;;;5092657;28;20450;-79
2020/12/22 08:39:24;;;;;;;7.78;2.15;;;12.30;99.90;;;;;;5094716;28;20091;-79
2020/12/22 08:41:58;;;;;;;12.52;2.17;;;12.30;99.90;;;;;;5077703;28;20060;-79
2020/12/22 08:44:25;;;;;;;11.93;2.28;;;12.30;99.90;;;;;;5096488;28;20024;-79
2020/12/22 08:46:53;;;;;;;10.30;2.53;;;12.30;99.90;;;;;;5096736;28;20020;-79
2020/12/22 08:49:26;;;;;;;13.93;1.90;;;12.30;99.90;;;;;;5096253;28;20093;-79
2020/12/22 08:51:52;;;;;;;8.32;2.25;;;12.30;99.90;;;;;;5096328;28;20055;-79
2020/12/22 08:54:18;;;;;;;14.52;3.47;;;12.30;99.90;;;;;;5078369;28;20027;-79
2020/12/22 08:56:43;;;;;;;7.32;2.17;;;12.30;99.90;;;;;;5078299;28;20106;-79
2020/12/22 08:59:11;;;;;;;14.32;2.33;;;12.30;99.90;;;;;;5078285;28;20027;-79
2020/12/22 09:01:47;;;;;;;6.38;1.90;;;12.40;99.90;;;;;;5078482;28;20028;-79
2020/12/22 09:04:14;;;;;;;9.63;2.42;;;12.40;99.90;;;;;;5078193;28;20028;-79
2020/12/22 09:06:43;;;;;;;10.82;2.28;;;12.40;99.90;;;;;;5078118;28;20067;-79
2020/12/22 09:09:11;;;;;;;12.27;3.13;;;12.40;99.90;;;;;;5095304;28;20024;-79
2020/12/22 09:11:38;;;;;;;10.25;2.15;;;12.40;99.90;;;;;;5095292;28;20028;-78
2020/12/22 09:14:11;;;;;;;14.80;2.85;;;12.40;99.90;;;;;;5077311;28;20472;-78
2020/12/22 09:16:54;;;;;;;14.75;2.67;;;12.40;99.90;;;;;;5078237;28;20525;-78
2020/12/22 09:19:39;;;;;;;12.30;2.60;;;12.50;99.90;;;;;;5077975;28;20487;-79
2020/12/22 09:22:05;;;;;;;9.43;2.90;;;12.50;99.90;;;;;;5096155;28;20049;-78
2020/12/22 09:24:34;;;;;;;8.43;2.75;;;12.40;99.90;;;;;;5095454;28;20020;-79
2020/12/22 09:27:04;;;;;;;11.10;3.10;;;12.40;99.90;;;;;;5069963;28;20024;-78
2020/12/22 09:29:30;;;;;;;10.65;3.80;;;12.40;99.90;;;;;;5078581;28;20076;-79
2020/12/22 09:31:57;;;;;;;12.30;3.50;;;12.40;99.90;;;;;;5055952;28;20107;-78
2020/12/22 09:34:24;;;;;;;16.70;3.72;;;12.40;99.90;;;;;;5056235;28;20024;-79
2020/12/22 09:36:55;;;;;;;10.18;3.40;;;12.50;99.90;;;;;;5074634;28;20024;-79
2020/12/22 09:39:22;;;;;;;12.35;3.63;;;12.50;99.90;;;;;;5074196;28;20376;-79
2020/12/22 09:41:48;;;;;;;10.35;3.22;;;12.40;99.90;;;;;;5057632;28;20024;-78
2020/12/22 09:44:13;;;;;;;9.60;4.20;;;12.40;99.90;;;;;;5075654;28;20025;-79
2020/12/22 09:46:39;;;;;;;10.93;3.78;;;12.40;99.90;;;;;;5064299;28;20080;-79
2020/12/22 09:49:05;;;;;;;18.90;5.18;;;12.40;99.90;;;;;;5075104;28;20041;-79
2020/12/22 09:51:31;;;;;;;14.13;3.80;;;12.40;99.90;;;;;;5061884;28;20020;-79
2020/12/22 09:53:57;;;;;;;11.10;3.22;;;12.50;99.90;;;;;;5075461;28;20542;-79
2020/12/22 09:56:23;;;;;;;10.73;3.30;;;12.50;99.90;;;;;;5056655;28;20025;-79
2020/12/22 09:58:48;;;;;;;11.95;3.63;;;12.50;99.90;;;;;;5056591;28;20090;-79
2020/12/22 10:01:20;;;;;;;9.07;3.05;;;12.50;99.90;;;;;;5078300;28;20143;-79
2020/12/22 10:03:46;;;;;;;11.07;3.25;;;12.50;99.90;;;;;;5056409;28;20025;-79
2020/12/22 10:06:15;;;;;;;12.27;2.70;;;12.50;99.90;;;;;;5056132;28;20027;-78
2020/12/22 10:08:40;;;;;;;6.85;3.15;;;12.50;99.90;;;;;;5056597;28;20028;-78
2020/12/22 10:11:06;;;;;;;13.35;2.90;;;12.50;99.90;;;;;;5074028;28;20400;-79
2020/12/22 10:13:31;;;;;;;11.82;2.45;;;12.50;99.90;;;;;;5074562;28;20036;-79
2020/12/22 10:15:59;;;;;;;6.43;2.30;;;12.50;99.90;;;;;;5072269;28;20028;-78
2020/12/22 10:18:26;;;;;;;8.65;2.08;;;12.50;99.90;;;;;;5056420;28;20023;-78
2020/12/22 10:20:52;;;;;;;8.35;2.25;;;12.40;99.90;;;;;;5073840;28;20028;-78
2020/12/22 10:23:18;;;;;;;10.05;2.30;;;12.40;99.90;;;;;;5056154;28;20024;-78
2020/12/22 10:25:44;;;;;;;8.38;1.80;;;12.40;99.90;;;;;;5074049;28;20020;-78
2020/12/22 10:28:09;;;;;;;9.20;1.95;;;12.40;99.90;;;;;;5056028;28;20107;-78
2020/12/22 10:30:35;;;;;;;11.27;2.53;;;12.40;99.90;;;;;;5065983;28;20026;-78
2020/12/22 10:33:00;;;;;;;9.07;2.63;;;12.40;99.90;;;;;;5064996;28;20364;-78
2020/12/22 10:35:26;;;;;;;9.45;3.85;;;12.40;99.90;;;;;;5065105;28;20052;-78
2020/12/22 10:37:51;;;;;;;7.72;2.63;;;12.40;99.90;;;;;;5084357;28;20020;-78
2020/12/22 10:40:17;;;;;;;10.38;3.33;;;12.40;99.90;;;;;;5058957;28;20542;-78
2020/12/22 10:42:42;;;;;;;14.13;4.10;;;12.30;99.90;;;;;;5067875;28;20032;-78
2020/12/22 10:45:08;;;;;;;8.50;3.58;;;12.30;99.90;;;;;;5060908;28;20024;-78
2020/12/22 10:47:33;;;;;;;11.50;4.38;;;12.30;99.90;;;;;;5068293;28;20361;-78
2020/12/22 10:49:59;;;;;;;10.43;4.28;;;12.30;99.90;;;;;;5055275;28;20052;-78
2020/12/22 10:52:24;;;;;;;11.98;4.85;;;12.30;99.90;;;;;;5055560;28;20032;-78
2020/12/22 10:54:50;;;;;;;10.00;4.60;;;12.30;99.90;;;;;;5073358;28;20035;-78
2020/12/22 10:57:15;;;;;;;16.23;5.80;;;12.40;99.90;;;;;;5073447;28;20021;-78
2020/12/22 10:59:41;;;;;;;12.27;5.03;;;12.40;99.90;;;;;;5055604;28;20028;-78
2020/12/22 11:02:06;;;;;;;13.45;5.13;;;12.40;99.90;;;;;;5073085;28;20491;-78
2020/12/22 11:04:32;;;;;;;13.20;5.22;;;12.40;99.90;;;;;;5073039;28;20028;-78
2020/12/22 11:09:23;;;;;;;13.00;5.32;;;12.30;99.90;;;;;;5082273;28;20472;-78
2020/12/22 11:11:48;;;;;;;12.27;5.05;;;12.30;99.90;;;;;;5061287;28;20059;-78
2020/12/22 11:14:14;;;;;;;15.52;4.70;;;12.30;99.90;;;;;;5083712;28;20487;-78
2020/12/22 11:16:40;;;;;;;10.57;3.97;;;12.30;99.90;;;;;;5061571;28;20535;-78
2020/12/22 11:19:06;;;;;;;10.60;3.35;;;12.30;99.90;;;;;;5072948;28;20062;-78
2020/12/22 11:21:32;;;;;;;10.93;2.85;;;12.30;99.90;;;;;;5072846;28;20028;-78
2020/12/22 11:23:58;;;;;;;11.57;2.03;;;12.30;99.90;;;;;;5054748;28;20025;-78
2020/12/22 11:26:27;;;;;;;13.27;2.92;;;12.30;99.90;;;;;;5091716;28;20024;-78
2020/12/22 11:28:53;;;;;;;10.15;2.78;;;12.40;99.90;;;;;;5074914;28;20119;-78
2020/12/22 11:31:19;;;;;;;16.13;2.72;;;12.40;99.90;;;;;;5075770;28;20032;-78
2020/12/22 11:33:45;;;;;;;18.75;2.97;;;12.30;99.90;;;;;;5073363;28;20024;-78
2020/12/22 11:36:12;;;;;;;12.02;2.45;;;12.30;99.90;;;;;;5053924;28;20027;-78
2020/12/22 11:38:38;;;;;;;16.45;3.25;;;12.20;99.90;;;;;;5072802;28;20105;-78
2020/12/22 11:41:04;;;;;;;8.25;2.70;;;12.20;99.90;;;;;;5072794;28;20020;-78
2020/12/22 11:43:30;;;;;;;22.35;3.97;;;12.10;99.90;;;;;;5054651;28;20412;-78
2020/12/22 11:45:55;;;;;;;18.35;4.68;;;12.10;99.90;;;;;;5057938;28;20029;-78
2020/12/22 11:48:24;;;;;;;14.10;3.90;;;12.10;99.90;;;;;;5058710;28;20529;-78
2020/12/22 11:50:52;;;;;;;15.85;4.78;;;12.00;99.90;;;;;;5072238;28;20040;-78
2020/12/22 11:53:18;;;;;;;19.38;8.40;;;12.00;99.90;;;;;;5053739;28;20026;-78
2020/12/22 11:55:43;;;;;;;26.55;10.75;;;12.00;99.90;;;;;;5055769;28;20111;-78
2020/12/22 11:58:09;;;;;;;16.02;8.70;;;11.90;99.90;;;;;;5057088;28;20029;-78
2020/12/22 12:00:34;;;;;;;11.50;6.60;;;11.80;99.90;;;;;;5060191;28;20025;-79
2020/12/22 12:03:00;;;;;;;8.40;2.65;;;11.80;99.90;;;;;;5053792;28;20384;-78
2020/12/22 12:05:25;;;;;;;4.13;1.92;;;11.70;99.90;;;;;;5073495;28;20024;-78
2020/12/22 12:07:51;;;;;;;5.80;1.60;;;11.60;99.90;;;;;;5071576;28;20031;-78
2020/12/22 12:10:16;;;;;;;7.05;2.92;;;11.50;99.90;;;;;;5056683;28;20035;-78
2020/12/22 12:12:42;;;;;;;3.45;2.05;;;11.50;99.90;;;;;;5071054;28;20025;-78
2020/12/22 12:15:07;;;;;;;5.25;2.03;;;11.40;99.90;;;;;;5071913;28;20104;-78
2020/12/22 12:17:33;;;;;;;5.70;2.28;;;11.40;99.90;;;;;;5053105;28;20029;-78
2020/12/22 12:19:58;;;;;;;10.32;2.53;;;11.30;99.90;;;;;;5081775;28;20027;-78
2020/12/22 12:22:24;;;;;;;5.80;2.63;;;11.30;99.90;;;;;;5074065;28;20024;-78
2020/12/22 12:24:49;;;;;;;7.93;4.20;;;11.20;99.90;;;;;;5077501;28;20024;-78
2020/12/22 12:27:15;;;;;;;14.52;4.78;;;11.20;99.90;;;;;;5053209;28;20364;-78
2020/12/22 12:29:43;;;;;;;10.10;5.25;;;11.20;99.90;;;;;;5071660;28;20392;-78
2020/12/22 12:32:09;;;;;;;13.30;6.00;;;11.20;99.90;;;;;;5055149;28;20031;-78
2020/12/22 12:34:34;;;;;;;9.82;6.15;;;11.10;99.90;;;;;;5078794;28;20028;-78
2020/12/22 12:37:01;;;;;;;17.13;6.18;;;11.10;99.90;;;;;;5073741;28;20475;-78
2020/12/22 12:39:26;;;;;;;13.32;5.47;;;11.10;99.90;;;;;;5074313;28;20101;-78
2020/12/22 12:41:52;;;;;;;10.75;6.05;;;11.00;99.90;;;;;;5058953;28;20061;-78